sensor_id;sensor_type;location;lat;lon;timestamp;temperature;humidity
25871;DHT22;13689;48.590;7.752;2023-09-12T00:02:06;25.60;58.00
25871;DHT22;13689;48.590;7.752;2023-09-12T00:04:32;25.60;58.00
25871;DHT22;13689;48.590;7.752;2023-09-12T00:06:57;25.60;58.10
25871;DHT22;13689;48.590;7.752;2023-09-12T00:09:23;25.60;58.10
25871;DHT22;13689;48.590;7.752;2023-09-12T00:11:49;25.60;58.10
25871;DHT22;13689;48.590;7.752;2023-09-12T00:14:18;25.50;58.10
25871;DHT22;13689;48.590;7.752;2023-09-12T00:16:43;25.50;58.10
25871;DHT22;13689;48.590;7.752;2023-09-12T00:19:09;25.50;58.20
25871;DHT22;13689;48.590;7.752;2023-09-12T00:21:34;25.50;58.30
25871;DHT22;13689;48.590;7.752;2023-09-12T00:24:00;25.50;58.30
25871;DHT22;13689;48.590;7.752;2023-09-12T00:26:26;25.50;58.30
25871;DHT22;13689;48.590;7.752;2023-09-12T00:28:52;25.50;58.40
25871;DHT22;13689;48.590;7.752;2023-09-12T00:31:17;25.50;58.30
25871;DHT22;13689;48.590;7.752;2023-09-12T00:33:43;25.50;58.30
25871;DHT22;13689;48.590;7.752;2023-09-12T00:36:09;25.40;58.30
25871;DHT22;13689;48.590;7.752;2023-09-12T00:38:35;25.40;58.30
25871;DHT22;13689;48.590;7.752;2023-09-12T00:41:00;25.30;58.50
25871;DHT22;13689;48.590;7.752;2023-09-12T00:43:26;25.30;58.70
25871;DHT22;13689;48.590;7.752;2023-09-12T00:45:52;25.30;58.80
25871;DHT22;13689;48.590;7.752;2023-09-12T00:48:18;25.30;58.80
25871;DHT22;13689;48.590;7.752;2023-09-12T00:50:45;25.40;58.90
25871;DHT22;13689;48.590;7.752;2023-09-12T00:53:11;25.40;58.90
25871;DHT22;13689;48.590;7.752;2023-09-12T00:55:40;25.50;58.90
25871;DHT22;13689;48.590;7.752;2023-09-12T00:58:10;25.50;58.80
25871;DHT22;13689;48.590;7.752;2023-09-12T01:00:36;25.40;58.70
25871;DHT22;13689;48.590;7.752;2023-09-12T01:03:02;25.50;58.80
25871;DHT22;13689;48.590;7.752;2023-09-12T01:05:28;25.40;58.80
25871;DHT22;13689;48.590;7.752;2023-09-12T01:07:54;25.40;58.80
25871;DHT22;13689;48.590;7.752;2023-09-12T01:10:20;25.50;58.90
25871;DHT22;13689;48.590;7.752;2023-09-12T01:12:46;25.50;58.90
25871;DHT22;13689;48.590;7.752;2023-09-12T01:15:11;25.40;58.80
25871;DHT22;13689;48.590;7.752;2023-09-12T01:17:40;25.50;58.90
25871;DHT22;13689;48.590;7.752;2023-09-12T01:20:10;25.40;58.90
25871;DHT22;13689;48.590;7.752;2023-09-12T01:28:23;25.30;59.70
25871;DHT22;13689;48.590;7.752;2023-09-12T01:30:51;25.20;59.70
25871;DHT22;13689;48.590;7.752;2023-09-12T01:33:17;25.20;60.00
25871;DHT22;13689;48.590;7.752;2023-09-12T01:35:43;25.20;60.30
25871;DHT22;13689;48.590;7.752;2023-09-12T01:38:09;25.20;60.50
25871;DHT22;13689;48.590;7.752;2023-09-12T01:40:43;25.10;60.80
25871;DHT22;13689;48.590;7.752;2023-09-12T01:43:09;25.10;61.20
25871;DHT22;13689;48.590;7.752;2023-09-12T01:45:35;25.10;61.30
25871;DHT22;13689;48.590;7.752;2023-09-12T01:48:03;25.10;61.50
25871;DHT22;13689;48.590;7.752;2023-09-12T01:50:29;25.10;61.80
25871;DHT22;13689;48.590;7.752;2023-09-12T01:52:56;25.10;61.70
25871;DHT22;13689;48.590;7.752;2023-09-12T01:55:22;25.10;61.60
25871;DHT22;13689;48.590;7.752;2023-09-12T01:57:48;25.00;61.60
25871;DHT22;13689;48.590;7.752;2023-09-12T02:00:14;25.00;61.80
25871;DHT22;13689;48.590;7.752;2023-09-12T02:02:39;25.00;61.90
25871;DHT22;13689;48.590;7.752;2023-09-12T02:07:41;25.00;61.80
25871;DHT22;13689;48.590;7.752;2023-09-12T02:10:07;25.00;61.90
25871;DHT22;13689;48.590;7.752;2023-09-12T02:12:34;25.00;61.70
25871;DHT22;13689;48.590;7.752;2023-09-12T02:14:59;25.00;62.00
25871;DHT22;13689;48.590;7.752;2023-09-12T02:17:25;25.00;61.80
25871;DHT22;13689;48.590;7.752;2023-09-12T02:19:51;25.00;61.90
25871;DHT22;13689;48.590;7.752;2023-09-12T02:22:16;24.90;61.80
25871;DHT22;13689;48.590;7.752;2023-09-12T02:24:42;24.80;62.10
25871;DHT22;13689;48.590;7.752;2023-09-12T02:27:07;24.80;62.30
25871;DHT22;13689;48.590;7.752;2023-09-12T02:29:33;24.80;63.00
25871;DHT22;13689;48.590;7.752;2023-09-12T02:31:59;24.80;63.40
25871;DHT22;13689;48.590;7.752;2023-09-12T02:34:25;24.70;63.60
25871;DHT22;13689;48.590;7.752;2023-09-12T02:36:51;24.70;63.90
25871;DHT22;13689;48.590;7.752;2023-09-12T02:39:16;24.70;64.10
25871;DHT22;13689;48.590;7.752;2023-09-12T02:41:42;24.70;64.20
25871;DHT22;13689;48.590;7.752;2023-09-12T02:44:07;24.70;64.30
25871;DHT22;13689;48.590;7.752;2023-09-12T02:46:34;24.60;64.40
25871;DHT22;13689;48.590;7.752;2023-09-12T02:48:59;24.60;64.50
25871;DHT22;13689;48.590;7.752;2023-09-12T02:51:25;24.50;64.60
25871;DHT22;13689;48.590;7.752;2023-09-12T02:53:51;24.50;64.80
25871;DHT22;13689;48.590;7.752;2023-09-12T02:56:17;24.50;64.80
25871;DHT22;13689;48.590;7.752;2023-09-12T02:58:46;24.50;64.80
25871;DHT22;13689;48.590;7.752;2023-09-12T03:01:18;24.50;64.80
25871;DHT22;13689;48.590;7.752;2023-09-12T03:03:49;24.50;64.50
25871;DHT22;13689;48.590;7.752;2023-09-12T03:06:15;24.50;64.50
25871;DHT22;13689;48.590;7.752;2023-09-12T03:08:42;24.50;64.60
25871;DHT22;13689;48.590;7.752;2023-09-12T03:11:09;24.50;64.60
25871;DHT22;13689;48.590;7.752;2023-09-12T03:13:36;24.50;64.60
25871;DHT22;13689;48.590;7.752;2023-09-12T03:16:01;24.50;64.50
25871;DHT22;13689;48.590;7.752;2023-09-12T03:18:27;24.40;64.50
25871;DHT22;13689;48.590;7.752;2023-09-12T03:20:52;24.30;64.50
25871;DHT22;13689;48.590;7.752;2023-09-12T03:23:19;24.30;64.70
25871;DHT22;13689;48.590;7.752;2023-09-12T03:25:45;24.30;64.50
25871;DHT22;13689;48.590;7.752;2023-09-12T03:28:11;24.20;64.60
25871;DHT22;13689;48.590;7.752;2023-09-12T03:30:37;24.20;64.60
25871;DHT22;13689;48.590;7.752;2023-09-12T03:33:04;24.10;64.70
25871;DHT22;13689;48.590;7.752;2023-09-12T03:35:32;24.10;64.90
25871;DHT22;13689;48.590;7.752;2023-09-12T03:37:57;24.10;64.70
25871;DHT22;13689;48.590;7.752;2023-09-12T03:40:23;24.10;64.60
25871;DHT22;13689;48.590;7.752;2023-09-12T03:42:49;24.00;64.40
25871;DHT22;13689;48.590;7.752;2023-09-12T03:45:14;24.00;64.40
25871;DHT22;13689;48.590;7.752;2023-09-12T03:47:40;24.00;64.40
25871;DHT22;13689;48.590;7.752;2023-09-12T03:50:06;24.00;64.30
25871;DHT22;13689;48.590;7.752;2023-09-12T03:52:31;24.00;64.30
25871;DHT22;13689;48.590;7.752;2023-09-12T03:54:57;24.00;64.30
25871;DHT22;13689;48.590;7.752;2023-09-12T03:57:23;23.90;65.00
25871;DHT22;13689;48.590;7.752;2023-09-12T03:59:48;23.90;64.30
25871;DHT22;13689;48.590;7.752;2023-09-12T04:02:14;23.90;64.30
25871;DHT22;13689;48.590;7.752;2023-09-12T04:04:39;23.80;64.40
25871;DHT22;13689;48.590;7.752;2023-09-12T04:07:05;23.80;64.40
25871;DHT22;13689;48.590;7.752;2023-09-12T04:09:31;23.80;64.50
25871;DHT22;13689;48.590;7.752;2023-09-12T04:11:57;23.80;64.40
25871;DHT22;13689;48.590;7.752;2023-09-12T04:14:22;23.80;64.50
25871;DHT22;13689;48.590;7.752;2023-09-12T04:16:48;23.70;64.40
25871;DHT22;13689;48.590;7.752;2023-09-12T04:19:14;23.70;64.40
25871;DHT22;13689;48.590;7.752;2023-09-12T04:21:40;23.70;64.30
25871;DHT22;13689;48.590;7.752;2023-09-12T04:24:06;23.80;64.30
25871;DHT22;13689;48.590;7.752;2023-09-12T04:26:32;23.80;64.20
25871;DHT22;13689;48.590;7.752;2023-09-12T04:28:58;23.80;64.20
25871;DHT22;13689;48.590;7.752;2023-09-12T04:31:23;23.80;64.30
25871;DHT22;13689;48.590;7.752;2023-09-12T04:33:53;23.80;64.30
25871;DHT22;13689;48.590;7.752;2023-09-12T04:36:19;23.70;64.40
25871;DHT22;13689;48.590;7.752;2023-09-12T04:38:45;23.70;64.60
25871;DHT22;13689;48.590;7.752;2023-09-12T04:41:12;23.60;64.60
25871;DHT22;13689;48.590;7.752;2023-09-12T04:43:40;23.60;64.90
25871;DHT22;13689;48.590;7.752;2023-09-12T04:46:06;23.60;64.90
25871;DHT22;13689;48.590;7.752;2023-09-12T04:48:32;23.60;65.00
25871;DHT22;13689;48.590;7.752;2023-09-12T04:50:57;23.60;64.90
25871;DHT22;13689;48.590;7.752;2023-09-12T04:53:23;23.60;64.90
25871;DHT22;13689;48.590;7.752;2023-09-12T04:55:49;23.60;64.90
25871;DHT22;13689;48.590;7.752;2023-09-12T04:58:17;23.60;65.60
25871;DHT22;13689;48.590;7.752;2023-09-12T05:00:42;23.60;64.90
25871;DHT22;13689;48.590;7.752;2023-09-12T05:03:08;23.60;64.70
25871;DHT22;13689;48.590;7.752;2023-09-12T05:05:35;23.60;64.60
25871;DHT22;13689;48.590;7.752;2023-09-12T05:08:02;23.60;64.70
25871;DHT22;13689;48.590;7.752;2023-09-12T05:10:27;23.60;64.70
25871;DHT22;13689;48.590;7.752;2023-09-12T05:12:53;23.60;64.70
25871;DHT22;13689;48.590;7.752;2023-09-12T05:15:18;23.60;64.70
25871;DHT22;13689;48.590;7.752;2023-09-12T05:17:44;23.60;64.70
25871;DHT22;13689;48.590;7.752;2023-09-12T05:20:10;23.60;64.60
25871;DHT22;13689;48.590;7.752;2023-09-12T05:22:36;23.60;64.50
25871;DHT22;13689;48.590;7.752;2023-09-12T05:25:01;23.60;64.30
25871;DHT22;13689;48.590;7.752;2023-09-12T05:27:27;23.40;64.50
25871;DHT22;13689;48.590;7.752;2023-09-12T05:29:52;23.40;65.00
25871;DHT22;13689;48.590;7.752;2023-09-12T05:32:18;23.50;64.90
25871;DHT22;13689;48.590;7.752;2023-09-12T05:34:44;23.60;64.70
25871;DHT22;13689;48.590;7.752;2023-09-12T05:37:10;23.60;64.50
25871;DHT22;13689;48.590;7.752;2023-09-12T05:39:36;23.70;64.50
25871;DHT22;13689;48.590;7.752;2023-09-12T05:42:01;23.70;64.30
25871;DHT22;13689;48.590;7.752;2023-09-12T05:44:27;23.70;64.10
25871;DHT22;13689;48.590;7.752;2023-09-12T05:46:53;23.70;63.90
25871;DHT22;13689;48.590;7.752;2023-09-12T05:49:19;23.70;64.00
25871;DHT22;13689;48.590;7.752;2023-09-12T05:51:45;23.80;64.00
25871;DHT22;13689;48.590;7.752;2023-09-12T05:54:10;23.70;64.80
25871;DHT22;13689;48.590;7.752;2023-09-12T05:56:39;23.70;63.90
25871;DHT22;13689;48.590;7.752;2023-09-12T05:59:06;23.70;64.00
25871;DHT22;13689;48.590;7.752;2023-09-12T06:01:31;23.60;63.80
25871;DHT22;13689;48.590;7.752;2023-09-12T06:03:57;23.60;64.30
25871;DHT22;13689;48.590;7.752;2023-09-12T06:06:23;23.70;64.30
25871;DHT22;13689;48.590;7.752;2023-09-12T06:08:48;23.80;64.00
25871;DHT22;13689;48.590;7.752;2023-09-12T06:11:14;23.90;63.80
25871;DHT22;13689;48.590;7.752;2023-09-12T06:13:40;24.00;63.60
25871;DHT22;13689;48.590;7.752;2023-09-12T06:16:06;24.10;63.30
25871;DHT22;13689;48.590;7.752;2023-09-12T06:18:32;24.20;63.00
25871;DHT22;13689;48.590;7.752;2023-09-12T06:20:59;24.30;62.60
25871;DHT22;13689;48.590;7.752;2023-09-12T06:23:29;24.30;62.10
25871;DHT22;13689;48.590;7.752;2023-09-12T06:25:55;24.00;62.00
25871;DHT22;13689;48.590;7.752;2023-09-12T06:28:30;24.00;62.60
25871;DHT22;13689;48.590;7.752;2023-09-12T06:30:57;24.00;63.00
25871;DHT22;13689;48.590;7.752;2023-09-12T06:33:24;24.10;62.80
25871;DHT22;13689;48.590;7.752;2023-09-12T06:35:50;24.20;62.50
25871;DHT22;13689;48.590;7.752;2023-09-12T06:38:18;24.30;62.50
25871;DHT22;13689;48.590;7.752;2023-09-12T06:40:44;24.30;62.10
25871;DHT22;13689;48.590;7.752;2023-09-12T06:43:10;24.60;61.90
25871;DHT22;13689;48.590;7.752;2023-09-12T06:45:36;24.80;61.60
25871;DHT22;13689;48.590;7.752;2023-09-12T06:48:03;25.10;61.00
25871;DHT22;13689;48.590;7.752;2023-09-12T06:50:29;25.00;60.40
25871;DHT22;13689;48.590;7.752;2023-09-12T06:52:55;25.10;60.40
25871;DHT22;13689;48.590;7.752;2023-09-12T06:55:20;25.40;60.10
25871;DHT22;13689;48.590;7.752;2023-09-12T06:57:46;25.70;59.60
25871;DHT22;13689;48.590;7.752;2023-09-12T07:00:12;26.00;59.20
25871;DHT22;13689;48.590;7.752;2023-09-12T07:02:38;26.20;58.70
25871;DHT22;13689;48.590;7.752;2023-09-12T07:05:04;26.30;58.20
25871;DHT22;13689;48.590;7.752;2023-09-12T07:07:30;26.40;57.70
25871;DHT22;13689;48.590;7.752;2023-09-12T07:09:56;26.50;57.60
25871;DHT22;13689;48.590;7.752;2023-09-12T07:12:22;26.60;57.20
25871;DHT22;13689;48.590;7.752;2023-09-12T07:14:48;26.90;56.80
25871;DHT22;13689;48.590;7.752;2023-09-12T07:17:16;27.20;56.40
25871;DHT22;13689;48.590;7.752;2023-09-12T07:19:43;27.50;56.10
25871;DHT22;13689;48.590;7.752;2023-09-12T07:22:08;27.80;55.50
25871;DHT22;13689;48.590;7.752;2023-09-12T07:24:34;28.20;55.10
25871;DHT22;13689;48.590;7.752;2023-09-12T07:26:59;28.40;54.40
25871;DHT22;13689;48.590;7.752;2023-09-12T07:29:25;28.60;54.20
25871;DHT22;13689;48.590;7.752;2023-09-12T07:31:54;28.20;53.20
25871;DHT22;13689;48.590;7.752;2023-09-12T07:34:20;27.60;53.30
25871;DHT22;13689;48.590;7.752;2023-09-12T07:36:46;27.30;53.90
25871;DHT22;13689;48.590;7.752;2023-09-12T07:39:11;27.10;54.10
25871;DHT22;13689;48.590;7.752;2023-09-12T07:41:38;27.00;54.00
25871;DHT22;13689;48.590;7.752;2023-09-12T07:44:03;26.90;54.00
25871;DHT22;13689;48.590;7.752;2023-09-12T07:46:30;26.90;54.10
25871;DHT22;13689;48.590;7.752;2023-09-12T07:48:56;26.90;54.20
25871;DHT22;13689;48.590;7.752;2023-09-12T07:51:22;27.60;54.00
25871;DHT22;13689;48.590;7.752;2023-09-12T07:53:48;28.30;53.00
25871;DHT22;13689;48.590;7.752;2023-09-12T07:56:15;29.00;52.80
25871;DHT22;13689;48.590;7.752;2023-09-12T07:58:41;29.80;51.10
25871;DHT22;13689;48.590;7.752;2023-09-12T08:01:07;30.30;50.10
25871;DHT22;13689;48.590;7.752;2023-09-12T08:03:34;30.80;49.40
25871;DHT22;13689;48.590;7.752;2023-09-12T08:06:00;31.10;48.80
25871;DHT22;13689;48.590;7.752;2023-09-12T08:08:26;31.30;48.30
25871;DHT22;13689;48.590;7.752;2023-09-12T08:10:51;31.70;47.70
25871;DHT22;13689;48.590;7.752;2023-09-12T08:13:17;32.00;47.10
25871;DHT22;13689;48.590;7.752;2023-09-12T08:15:42;32.20;46.60
25871;DHT22;13689;48.590;7.752;2023-09-12T08:18:08;32.40;46.20
25871;DHT22;13689;48.590;7.752;2023-09-12T08:20:33;32.70;45.60
25871;DHT22;13689;48.590;7.752;2023-09-12T08:22:59;32.80;45.20
25871;DHT22;13689;48.590;7.752;2023-09-12T08:25:24;32.90;44.90
25871;DHT22;13689;48.590;7.752;2023-09-12T08:27:50;33.00;44.70
25871;DHT22;13689;48.590;7.752;2023-09-12T08:30:16;33.10;44.40
25871;DHT22;13689;48.590;7.752;2023-09-12T08:32:42;33.10;44.10
25871;DHT22;13689;48.590;7.752;2023-09-12T08:35:11;33.10;43.80
25871;DHT22;13689;48.590;7.752;2023-09-12T08:37:38;33.30;43.60
25871;DHT22;13689;48.590;7.752;2023-09-12T08:40:05;33.30;43.30
25871;DHT22;13689;48.590;7.752;2023-09-12T08:42:37;33.50;43.10
25871;DHT22;13689;48.590;7.752;2023-09-12T08:45:04;33.50;42.80
25871;DHT22;13689;48.590;7.752;2023-09-12T08:47:31;33.50;43.20
25871;DHT22;13689;48.590;7.752;2023-09-12T08:49:58;33.50;42.60
25871;DHT22;13689;48.590;7.752;2023-09-12T08:52:24;33.50;42.70
25871;DHT22;13689;48.590;7.752;2023-09-12T08:54:50;33.50;42.60
25871;DHT22;13689;48.590;7.752;2023-09-12T08:57:15;33.50;42.50
25871;DHT22;13689;48.590;7.752;2023-09-12T08:59:43;33.50;42.40
25871;DHT22;13689;48.590;7.752;2023-09-12T09:02:10;33.40;42.30
25871;DHT22;13689;48.590;7.752;2023-09-12T09:04:38;33.30;42.90
25871;DHT22;13689;48.590;7.752;2023-09-12T09:07:05;33.30;42.50
25871;DHT22;13689;48.590;7.752;2023-09-12T09:09:31;33.40;42.50
25871;DHT22;13689;48.590;7.752;2023-09-12T09:11:57;33.40;42.40
25871;DHT22;13689;48.590;7.752;2023-09-12T09:14:23;33.40;42.50
25871;DHT22;13689;48.590;7.752;2023-09-12T09:16:50;33.30;42.40
25871;DHT22;13689;48.590;7.752;2023-09-12T09:19:15;33.20;42.50
25871;DHT22;13689;48.590;7.752;2023-09-12T09:21:42;33.20;42.80
25871;DHT22;13689;48.590;7.752;2023-09-12T09:24:09;33.20;42.80
25871;DHT22;13689;48.590;7.752;2023-09-12T09:26:51;33.20;42.90
25871;DHT22;13689;48.590;7.752;2023-09-12T09:29:24;33.50;42.70
25871;DHT22;13689;48.590;7.752;2023-09-12T09:31:51;33.90;42.50
25871;DHT22;13689;48.590;7.752;2023-09-12T09:34:21;34.20;42.10
25871;DHT22;13689;48.590;7.752;2023-09-12T09:36:54;34.30;41.50
25871;DHT22;13689;48.590;7.752;2023-09-12T09:39:23;34.40;41.10
25871;DHT22;13689;48.590;7.752;2023-09-12T09:41:53;34.50;40.60
25871;DHT22;13689;48.590;7.752;2023-09-12T09:44:21;34.60;40.10
25871;DHT22;13689;48.590;7.752;2023-09-12T09:46:50;34.70;39.80
25871;DHT22;13689;48.590;7.752;2023-09-12T09:49:19;34.80;39.50
25871;DHT22;13689;48.590;7.752;2023-09-12T09:51:45;34.90;39.20
25871;DHT22;13689;48.590;7.752;2023-09-12T09:54:12;35.00;38.80
25871;DHT22;13689;48.590;7.752;2023-09-12T09:56:58;34.90;38.40
25871;DHT22;13689;48.590;7.752;2023-09-12T09:59:25;35.00;38.90
25871;DHT22;13689;48.590;7.752;2023-09-12T10:01:58;35.00;38.00
25871;DHT22;13689;48.590;7.752;2023-09-12T10:04:27;34.90;37.70
25871;DHT22;13689;48.590;7.752;2023-09-12T10:06:57;34.80;37.60
25871;DHT22;13689;48.590;7.752;2023-09-12T10:09:26;34.70;37.60
25871;DHT22;13689;48.590;7.752;2023-09-12T10:11:54;34.60;37.40
25871;DHT22;13689;48.590;7.752;2023-09-12T10:14:20;34.50;37.80
25871;DHT22;13689;48.590;7.752;2023-09-12T10:16:48;34.70;37.70
25871;DHT22;13689;48.590;7.752;2023-09-12T10:19:22;35.10;37.50
25871;DHT22;13689;48.590;7.752;2023-09-12T10:22:11;35.40;36.70
25871;DHT22;13689;48.590;7.752;2023-09-12T10:24:39;35.60;36.50
25871;DHT22;13689;48.590;7.752;2023-09-12T10:27:06;35.90;36.20
25871;DHT22;13689;48.590;7.752;2023-09-12T10:29:34;36.10;35.80
25871;DHT22;13689;48.590;7.752;2023-09-12T10:32:00;36.20;35.40
25871;DHT22;13689;48.590;7.752;2023-09-12T10:34:27;36.30;35.20
25871;DHT22;13689;48.590;7.752;2023-09-12T10:36:55;36.40;34.80
25871;DHT22;13689;48.590;7.752;2023-09-12T10:39:24;36.30;34.60
25871;DHT22;13689;48.590;7.752;2023-09-12T10:41:53;35.90;34.70
25871;DHT22;13689;48.590;7.752;2023-09-12T10:44:20;35.00;35.40
25871;DHT22;13689;48.590;7.752;2023-09-12T10:46:47;34.30;36.20
25871;DHT22;13689;48.590;7.752;2023-09-12T10:49:15;33.60;37.10
25871;DHT22;13689;48.590;7.752;2023-09-12T10:51:45;33.10;37.80
25871;DHT22;13689;48.590;7.752;2023-09-12T10:54:14;32.70;38.30
25871;DHT22;13689;48.590;7.752;2023-09-12T10:56:41;32.30;38.60
25871;DHT22;13689;48.590;7.752;2023-09-12T11:01:37;31.90;39.60
25871;DHT22;13689;48.590;7.752;2023-09-12T11:06:50;31.70;40.20
25871;DHT22;13689;48.590;7.752;2023-09-12T11:11:49;31.40;40.40
25871;DHT22;13689;48.590;7.752;2023-09-12T11:14:15;31.30;40.50
25871;DHT22;13689;48.590;7.752;2023-09-12T11:16:42;31.20;40.00
25871;DHT22;13689;48.590;7.752;2023-09-12T11:19:18;31.20;39.80
25871;DHT22;13689;48.590;7.752;2023-09-12T11:21:46;31.20;39.70
25871;DHT22;13689;48.590;7.752;2023-09-12T11:24:12;31.20;39.70
25871;DHT22;13689;48.590;7.752;2023-09-12T11:26:58;31.10;40.00
25871;DHT22;13689;48.590;7.752;2023-09-12T11:29:38;30.90;40.20
25871;DHT22;13689;48.590;7.752;2023-09-12T11:32:05;30.80;40.50
25871;DHT22;13689;48.590;7.752;2023-09-12T11:34:42;30.80;40.60
25871;DHT22;13689;48.590;7.752;2023-09-12T11:37:08;30.80;40.40
25871;DHT22;13689;48.590;7.752;2023-09-12T11:39:36;30.80;40.30
25871;DHT22;13689;48.590;7.752;2023-09-12T11:42:04;30.90;40.00
25871;DHT22;13689;48.590;7.752;2023-09-12T11:44:31;30.80;39.80
25871;DHT22;13689;48.590;7.752;2023-09-12T11:47:00;30.80;39.40
25871;DHT22;13689;48.590;7.752;2023-09-12T11:49:39;30.80;39.30
25871;DHT22;13689;48.590;7.752;2023-09-12T11:52:13;30.80;39.30
25871;DHT22;13689;48.590;7.752;2023-09-12T11:54:43;30.90;39.20
25871;DHT22;13689;48.590;7.752;2023-09-12T11:57:12;30.90;38.80
25871;DHT22;13689;48.590;7.752;2023-09-12T11:59:49;30.90;38.70
25871;DHT22;13689;48.590;7.752;2023-09-12T12:02:15;30.90;38.60
25871;DHT22;13689;48.590;7.752;2023-09-12T12:04:43;30.90;38.30
25871;DHT22;13689;48.590;7.752;2023-09-12T12:07:10;30.90;38.20
25871;DHT22;13689;48.590;7.752;2023-09-12T12:09:36;31.00;38.20
25871;DHT22;13689;48.590;7.752;2023-09-12T12:12:14;31.00;38.10
25871;DHT22;13689;48.590;7.752;2023-09-12T12:14:41;31.00;37.60
25871;DHT22;13689;48.590;7.752;2023-09-12T12:17:11;31.10;37.20
25871;DHT22;13689;48.590;7.752;2023-09-12T12:19:37;31.20;36.60
25871;DHT22;13689;48.590;7.752;2023-09-12T12:22:05;31.20;36.30
25871;DHT22;13689;48.590;7.752;2023-09-12T12:24:46;31.20;36.20
25871;DHT22;13689;48.590;7.752;2023-09-12T12:27:14;31.20;36.00
25871;DHT22;13689;48.590;7.752;2023-09-12T12:29:41;31.20;35.90
25871;DHT22;13689;48.590;7.752;2023-09-12T12:32:07;31.20;35.70
25871;DHT22;13689;48.590;7.752;2023-09-12T12:34:35;31.20;35.60
25871;DHT22;13689;48.590;7.752;2023-09-12T12:37:01;31.20;35.60
25871;DHT22;13689;48.590;7.752;2023-09-12T12:39:27;31.30;35.40
25871;DHT22;13689;48.590;7.752;2023-09-12T12:41:53;31.40;35.00
25871;DHT22;13689;48.590;7.752;2023-09-12T12:44:19;31.50;34.40
25871;DHT22;13689;48.590;7.752;2023-09-12T12:47:04;31.60;34.10
25871;DHT22;13689;48.590;7.752;2023-09-12T12:49:37;31.70;33.80
25871;DHT22;13689;48.590;7.752;2023-09-12T12:52:09;31.80;33.90
25871;DHT22;13689;48.590;7.752;2023-09-12T12:54:35;31.80;33.90
25871;DHT22;13689;48.590;7.752;2023-09-12T12:57:00;31.70;33.60
25871;DHT22;13689;48.590;7.752;2023-09-12T12:59:28;31.80;33.30
25871;DHT22;13689;48.590;7.752;2023-09-12T13:01:55;31.80;33.30
25871;DHT22;13689;48.590;7.752;2023-09-12T13:04:21;31.80;33.30
25871;DHT22;13689;48.590;7.752;2023-09-12T13:06:46;31.80;33.40
25871;DHT22;13689;48.590;7.752;2023-09-12T13:09:12;31.80;33.40
25871;DHT22;13689;48.590;7.752;2023-09-12T13:11:38;31.80;33.40
25871;DHT22;13689;48.590;7.752;2023-09-12T13:14:04;31.80;33.50
25871;DHT22;13689;48.590;7.752;2023-09-12T13:16:34;31.70;33.60
25871;DHT22;13689;48.590;7.752;2023-09-12T13:19:00;31.70;33.60
25871;DHT22;13689;48.590;7.752;2023-09-12T13:21:26;31.70;33.60
25871;DHT22;13689;48.590;7.752;2023-09-12T13:23:51;31.60;33.60
25871;DHT22;13689;48.590;7.752;2023-09-12T13:26:17;31.70;34.50
25871;DHT22;13689;48.590;7.752;2023-09-12T13:28:42;31.70;34.10
25871;DHT22;13689;48.590;7.752;2023-09-12T13:31:08;31.70;34.10
25871;DHT22;13689;48.590;7.752;2023-09-12T13:33:34;31.60;34.10
25871;DHT22;13689;48.590;7.752;2023-09-12T13:35:59;31.60;34.20
25871;DHT22;13689;48.590;7.752;2023-09-12T13:38:25;31.60;34.20
25871;DHT22;13689;48.590;7.752;2023-09-12T13:40:51;31.60;34.20
25871;DHT22;13689;48.590;7.752;2023-09-12T13:43:16;31.60;34.10
25871;DHT22;13689;48.590;7.752;2023-09-12T13:45:42;31.60;34.20
25871;DHT22;13689;48.590;7.752;2023-09-12T13:48:08;31.60;34.20
25871;DHT22;13689;48.590;7.752;2023-09-12T13:50:34;31.50;34.20
25871;DHT22;13689;48.590;7.752;2023-09-12T13:53:02;31.50;34.30
25871;DHT22;13689;48.590;7.752;2023-09-12T13:55:33;31.50;34.30
25871;DHT22;13689;48.590;7.752;2023-09-12T13:58:04;31.40;34.00
25871;DHT22;13689;48.590;7.752;2023-09-12T14:00:31;31.40;34.00
25871;DHT22;13689;48.590;7.752;2023-09-12T14:02:57;31.40;34.00
25871;DHT22;13689;48.590;7.752;2023-09-12T14:05:23;31.40;33.70
25871;DHT22;13689;48.590;7.752;2023-09-12T14:07:50;31.40;33.80
25871;DHT22;13689;48.590;7.752;2023-09-12T14:10:16;31.40;33.80
25871;DHT22;13689;48.590;7.752;2023-09-12T14:12:41;31.40;33.60
25871;DHT22;13689;48.590;7.752;2023-09-12T14:15:07;31.50;33.50
25871;DHT22;13689;48.590;7.752;2023-09-12T14:17:33;31.50;33.30
25871;DHT22;13689;48.590;7.752;2023-09-12T14:19:59;31.40;33.20
25871;DHT22;13689;48.590;7.752;2023-09-12T14:22:24;31.40;33.40
25871;DHT22;13689;48.590;7.752;2023-09-12T14:24:50;31.30;33.50
25871;DHT22;13689;48.590;7.752;2023-09-12T14:27:15;31.40;33.40
25871;DHT22;13689;48.590;7.752;2023-09-12T14:29:41;31.40;33.20
25871;DHT22;13689;48.590;7.752;2023-09-12T14:32:11;31.40;33.20
25871;DHT22;13689;48.590;7.752;2023-09-12T14:34:37;31.40;33.40
25871;DHT22;13689;48.590;7.752;2023-09-12T14:37:02;31.30;33.50
25871;DHT22;13689;48.590;7.752;2023-09-12T14:39:28;31.30;33.60
25871;DHT22;13689;48.590;7.752;2023-09-12T14:41:53;31.30;33.20
25871;DHT22;13689;48.590;7.752;2023-09-12T14:44:24;31.40;33.10
25871;DHT22;13689;48.590;7.752;2023-09-12T14:46:50;31.50;33.10
25871;DHT22;13689;48.590;7.752;2023-09-12T14:49:16;31.40;32.90
25871;DHT22;13689;48.590;7.752;2023-09-12T14:51:42;31.40;32.80
25871;DHT22;13689;48.590;7.752;2023-09-12T14:54:08;31.40;32.80
25871;DHT22;13689;48.590;7.752;2023-09-12T14:56:34;31.30;32.90
25871;DHT22;13689;48.590;7.752;2023-09-12T14:59:01;31.30;33.00
25871;DHT22;13689;48.590;7.752;2023-09-12T15:01:27;31.30;33.00
25871;DHT22;13689;48.590;7.752;2023-09-12T15:03:54;31.30;33.10
25871;DHT22;13689;48.590;7.752;2023-09-12T15:06:19;31.30;33.00
25871;DHT22;13689;48.590;7.752;2023-09-12T15:08:45;31.30;32.60
25871;DHT22;13689;48.590;7.752;2023-09-12T15:11:11;31.30;32.40
25871;DHT22;13689;48.590;7.752;2023-09-12T15:13:37;31.30;32.40
25871;DHT22;13689;48.590;7.752;2023-09-12T15:16:03;31.30;32.40
25871;DHT22;13689;48.590;7.752;2023-09-12T15:18:30;31.20;32.30
25871;DHT22;13689;48.590;7.752;2023-09-12T15:20:55;31.30;32.10
25871;DHT22;13689;48.590;7.752;2023-09-12T15:23:21;31.30;32.10
25871;DHT22;13689;48.590;7.752;2023-09-12T15:25:51;31.30;32.10
25871;DHT22;13689;48.590;7.752;2023-09-12T15:28:17;31.30;32.10
25871;DHT22;13689;48.590;7.752;2023-09-12T15:30:43;31.30;32.10
25871;DHT22;13689;48.590;7.752;2023-09-12T15:33:09;31.30;32.00
25871;DHT22;13689;48.590;7.752;2023-09-12T15:35:35;31.30;32.10
25871;DHT22;13689;48.590;7.752;2023-09-12T15:38:00;31.30;32.10
25871;DHT22;13689;48.590;7.752;2023-09-12T15:40:27;31.30;32.30
25871;DHT22;13689;48.590;7.752;2023-09-12T15:42:53;31.30;32.50
25871;DHT22;13689;48.590;7.752;2023-09-12T15:45:18;31.20;32.70